Terminal Aerodrome Forecast
Issued by NWS Wilmington, OH

Current Version | Previous Version | Graphics & Text | Print | Product List | Glossary On
Versions: 1 2 3 4 5 6 7 8 9 10 11 12 13 14 15 16 17 18 19
000
FTUS41 KILN 301700
TAFDAY
TAF
KDAY 301739Z 3018/3118 29010KT P6SM VCTS BKN050CB
     FM302100 29010KT P6SM SCT050
     FM310000 29004KT P6SM FEW050
      TEMPO 3109/3113 4SM BR
     FM311500 24006KT P6SM SCT040=

USA.gov is the U.S. government's official web portal to all federal, state and local government web resources and services.